Time;durP1;ratioP1;P1;durP2;ratioP2;P2;SDS_P1;SDS_P2;PMS_P1;PMS_P2;Temp;Humidity;BMP_temperature;BMP_pressure;BME280_temperature;BME280_humidity;BME280_pressure;Samples;Min_cycle;Max_cycle;Signal;HPM_P1;HPM_P2
2022/11/28 00:00:51;;;;;;;12.65;6.13;;;;;;;;;;5012221;28;20054;-88
2022/11/28 00:03:24;;;;;;;13.55;5.82;;;;;;;;;;4993953;28;20093;-87
2022/11/28 00:05:52;;;;;;;12.63;5.90;;;;;;;;;;5011666;28;20069;-88
2022/11/28 00:08:20;;;;;;;12.43;5.50;;;;;;;;;;4975926;28;20407;-88
2022/11/28 00:10:48;;;;;;;14.00;6.05;;;;;;;;;;5025232;28;20141;-88
2022/11/28 00:13:16;;;;;;;14.98;5.93;;;;;;;;;;5009880;28;20045;-87
2022/11/28 00:15:44;;;;;;;12.77;5.78;;;;;;;;;;5010951;28;20502;-87
2022/11/28 00:18:12;;;;;;;10.70;5.60;;;;;;;;;;4994171;28;20128;-88
2022/11/28 00:20:46;;;;;;;15.40;5.95;;;;;;;;;;5023389;28;20451;-88
2022/11/28 00:23:14;;;;;;;10.90;4.95;;;;;;;;;;4993600;28;20053;-88
2022/11/28 00:25:42;;;;;;;15.82;5.90;;;;;;;;;;5008835;28;20046;-88
2022/11/28 00:28:10;;;;;;;14.00;5.65;;;;;;;;;;4977071;28;20527;-88
2022/11/28 00:30:38;;;;;;;13.20;5.32;;;;;;;;;;5010319;28;20065;-88
2022/11/28 00:33:06;;;;;;;11.25;4.32;;;;;;;;;;4992352;28;20042;-87
2022/11/28 00:35:34;;;;;;;9.30;5.53;;;;;;;;;;5007872;28;20069;-87
2022/11/28 00:38:12;;;;;;;11.55;5.28;;;;;;;;;;5011197;28;20052;-87
2022/11/28 00:40:44;;;;;;;10.15;5.05;;;;;;;;;;4977815;28;20042;-87
2022/11/28 00:43:16;;;;;;;12.30;5.20;;;;;;;;;;4988414;28;20054;-88
2022/11/28 00:45:44;;;;;;;16.88;5.72;;;;;;;;;;4995842;28;20045;-88
2022/11/28 00:48:12;;;;;;;12.82;5.57;;;;;;;;;;4993947;28;20435;-87
2022/11/28 00:50:40;;;;;;;10.20;4.53;;;;;;;;;;4990534;28;20058;-87
2022/11/28 00:53:10;;;;;;;11.93;5.40;;;;;;;;;;4992926;28;20038;-87
2022/11/28 00:55:42;;;;;;;13.00;5.82;;;;;;;;;;5010238;28;20137;-87
2022/11/28 00:58:10;;;;;;;15.63;5.13;;;;;;;;;;4992811;28;20046;-87
2022/11/28 01:00:38;;;;;;;13.90;5.50;;;;;;;;;;4992341;28;20187;-87
2022/11/28 01:03:06;;;;;;;12.98;5.53;;;;;;;;;;4988456;28;20129;-87
2022/11/28 01:05:39;;;;;;;8.55;4.43;;;;;;;;;;5009559;28;20049;-87
2022/11/28 01:08:12;;;;;;;14.77;4.97;;;;;;;;;;5009177;28;20054;-87
2022/11/28 01:10:41;;;;;;;9.60;4.80;;;;;;;;;;4992571;28;20507;-87
2022/11/28 01:13:14;;;;;;;13.63;5.40;;;;;;;;;;5005949;28;20136;-88
2022/11/28 01:15:42;;;;;;;12.23;5.32;;;;;;;;;;4976442;28;20045;-88
2022/11/28 01:18:10;;;;;;;10.27;4.88;;;;;;;;;;4992951;28;20046;-88
2022/11/28 01:20:38;;;;;;;9.38;4.32;;;;;;;;;;5008742;28;20104;-88
2022/11/28 01:23:10;;;;;;;11.52;5.43;;;;;;;;;;4994062;28;20419;-88
2022/11/28 01:25:42;;;;;;;10.13;5.22;;;;;;;;;;5007318;28;20046;-88
2022/11/28 01:28:10;;;;;;;7.95;3.95;;;;;;;;;;5011449;28;20042;-88
2022/11/28 01:30:42;;;;;;;11.27;4.10;;;;;;;;;;5008108;28;20083;-87
2022/11/28 01:33:10;;;;;;;11.52;5.10;;;;;;;;;;5011093;28;20049;-87
2022/11/28 01:35:38;;;;;;;12.45;5.35;;;;;;;;;;5001387;28;20054;-88
2022/11/28 01:38:30;;;;;;;9.45;4.15;;;;;;;;;;4996126;28;20045;-88
2022/11/28 01:41:04;;;;;;;12.88;4.57;;;;;;;;;;5025285;28;20141;-88
2022/11/28 01:43:32;;;;;;;12.00;5.25;;;;;;;;;;5007865;28;20125;-87
2022/11/28 01:46:04;;;;;;;15.88;5.70;;;;;;;;;;5005089;28;20053;-87
2022/11/28 01:48:36;;;;;;;13.63;5.35;;;;;;;;;;5010467;28;20080;-87
2022/11/28 01:51:29;;;;;;;10.60;4.80;;;;;;;;;;5000996;28;20437;-87
2022/11/28 01:54:22;;;;;;;10.30;5.00;;;;;;;;;;4993993;28;20048;-87
2022/11/28 01:57:01;;;;;;;14.00;5.53;;;;;;;;;;4990460;28;20057;-88
2022/11/28 01:59:34;;;;;;;9.05;4.88;;;;;;;;;;4993590;28;20408;-88
2022/11/28 02:02:14;;;;;;;12.27;5.05;;;;;;;;;;5006925;28;20164;-87
2022/11/28 02:04:42;;;;;;;11.60;4.85;;;;;;;;;;4990152;28;20590;-87
2022/11/28 02:07:10;;;;;;;13.73;5.13;;;;;;;;;;5006931;28;20064;-88
2022/11/28 02:09:38;;;;;;;10.43;5.18;;;;;;;;;;5008390;28;20054;-88
2022/11/28 02:12:32;;;;;;;9.00;4.28;;;;;;;;;;5009064;28;20160;-87
2022/11/28 02:15:07;;;;;;;13.93;5.78;;;;;;;;;;5009570;28;20743;-87
2022/11/28 02:17:59;;;;;;;8.35;4.45;;;;;;;;;;4989867;28;20570;-87
2022/11/28 02:20:42;;;;;;;12.50;5.38;;;;;;;;;;5004873;28;20041;-87
2022/11/28 02:23:26;;;;;;;11.18;4.95;;;;;;;;;;5010149;28;20111;-87
2022/11/28 02:26:02;;;;;;;9.65;3.88;;;;;;;;;;5008921;28;20042;-87
2022/11/28 02:29:14;;;;;;;12.13;5.10;;;;;;;;;;5010555;28;20045;-87
2022/11/28 02:32:16;;;;;;;7.25;3.42;;;;;;;;;;4951891;28;20527;-87
2022/11/28 02:34:55;;;;;;;9.88;4.90;;;;;;;;;;4965943;28;20054;-87
2022/11/28 02:38:21;;;;;;;11.93;4.45;;;;;;;;;;4953454;28;20053;-87
2022/11/28 02:41:02;;;;;;;5.60;2.47;;;;;;;;;;4951096;28;20628;-87
2022/11/28 02:43:57;;;;;;;9.73;4.65;;;;;;;;;;4967112;28;20055;-87
2022/11/28 02:46:32;;;;;;;3.38;1.85;;;;;;;;;;4965866;28;20133;-86
2022/11/28 02:49:11;;;;;;;8.88;5.10;;;;;;;;;;4965787;28;20062;-86
2022/11/28 02:51:48;;;;;;;7.78;4.13;;;;;;;;;;4967518;28;20125;-86
2022/11/28 02:54:19;;;;;;;12.60;5.00;;;;;;;;;;4965580;28;20121;-86
2022/11/28 02:59:41;;;;;;;8.07;4.32;;;;;;;;;;4965732;28;20425;-85
2022/11/28 03:02:15;;;;;;;15.48;4.93;;;;;;;;;;4964307;28;20098;-86
2022/11/28 03:04:50;;;;;;;11.63;4.55;;;;;;;;;;4966515;28;20073;-86
2022/11/28 03:07:56;;;;;;;6.97;2.70;;;;;;;;;;4972084;28;20051;-86
2022/11/28 03:10:46;;;;;;;8.45;4.00;;;;;;;;;;5007497;28;20045;-86
2022/11/28 03:13:20;;;;;;;12.95;4.40;;;;;;;;;;5007200;28;20053;-86
2022/11/28 03:16:26;;;;;;;10.15;4.32;;;;;;;;;;5008560;28;20080;-86
2022/11/28 03:19:13;;;;;;;10.70;4.80;;;;;;;;;;4991082;28;20046;-86
2022/11/28 03:21:57;;;;;;;12.50;4.78;;;;;;;;;;5008632;28;20099;-86
2022/11/28 03:25:22;;;;;;;9.13;4.25;;;;;;;;;;5009077;28;20038;-86
2022/11/28 03:28:11;;;;;;;9.50;4.57;;;;;;;;;;5007435;28;20054;-86
2022/11/28 03:31:38;;;;;;;9.13;4.25;;;;;;;;;;4996622;28;20546;-86
2022/11/28 03:34:16;;;;;;;8.77;4.53;;;;;;;;;;5007906;28;20042;-86
2022/11/28 03:36:49;;;;;;;8.65;4.20;;;;;;;;;;5007849;28;20065;-86
2022/11/28 03:39:22;;;;;;;8.48;3.60;;;;;;;;;;5000036;28;20137;-86
2022/11/28 03:42:06;;;;;;;9.30;4.60;;;;;;;;;;4991481;28;20054;-86
2022/11/28 03:44:47;;;;;;;10.00;5.25;;;;;;;;;;5007360;28;20053;-86
2022/11/28 03:47:16;;;;;;;10.13;4.68;;;;;;;;;;5008855;28;20052;-86
2022/11/28 03:49:49;;;;;;;9.77;4.45;;;;;;;;;;5007598;28;20535;-86
2022/11/28 03:52:30;;;;;;;8.02;4.32;;;;;;;;;;5009082;28;20046;-86
2022/11/28 03:55:15;;;;;;;12.63;5.20;;;;;;;;;;5000543;28;20073;-86
2022/11/28 03:57:48;;;;;;;10.57;4.75;;;;;;;;;;5007646;28;20073;-86
2022/11/28 04:00:16;;;;;;;11.48;5.05;;;;;;;;;;5006959;28;20128;-86
2022/11/28 04:03:21;;;;;;;9.98;3.15;;;;;;;;;;5009394;28;20543;-86
2022/11/28 04:06:09;;;;;;;10.60;4.95;;;;;;;;;;5007590;28;20061;-86
2022/11/28 04:08:43;;;;;;;10.85;4.60;;;;;;;;;;4974386;28;20446;-86
2022/11/28 04:11:21;;;;;;;10.55;4.38;;;;;;;;;;4974332;28;20046;-86
2022/11/28 04:13:58;;;;;;;10.88;4.53;;;;;;;;;;5006740;28;20080;-86
2022/11/28 04:16:40;;;;;;;9.73;5.10;;;;;;;;;;5020837;28;20049;-86
2022/11/28 04:19:31;;;;;;;9.00;4.55;;;;;;;;;;5005744;28;20038;-86
2022/11/28 04:22:04;;;;;;;12.48;4.53;;;;;;;;;;5008887;28;20056;-86
2022/11/28 04:24:40;;;;;;;8.32;4.32;;;;;;;;;;5007608;28;20054;-86
2022/11/28 04:28:03;;;;;;;11.05;4.85;;;;;;;;;;5007732;28;20533;-86
2022/11/28 04:30:32;;;;;;;8.73;4.53;;;;;;;;;;4989586;28;21085;-86
2022/11/28 04:33:04;;;;;;;10.90;4.57;;;;;;;;;;4998589;28;20042;-86
2022/11/28 04:35:39;;;;;;;9.95;4.47;;;;;;;;;;5007142;28;20073;-86
2022/11/28 04:38:08;;;;;;;12.15;5.28;;;;;;;;;;5008171;28;20057;-86
2022/11/28 04:40:55;;;;;;;14.63;5.93;;;;;;;;;;5008606;28;20626;-86
2022/11/28 04:43:32;;;;;;;10.57;4.60;;;;;;;;;;5009454;28;20642;-86
2022/11/28 04:46:39;;;;;;;13.73;5.05;;;;;;;;;;5009967;28;20045;-86
2022/11/28 04:49:08;;;;;;;14.73;5.13;;;;;;;;;;5009835;28;20057;-85
2022/11/28 04:51:48;;;;;;;17.35;5.70;;;;;;;;;;5011022;28;20053;-86
2022/11/28 04:54:28;;;;;;;9.02;4.45;;;;;;;;;;5008704;28;20565;-86
2022/11/28 04:57:39;;;;;;;12.70;5.40;;;;;;;;;;5011619;28;20072;-86
2022/11/28 05:00:12;;;;;;;9.50;4.15;;;;;;;;;;4961129;28;20050;-86
2022/11/28 05:03:05;;;;;;;9.07;4.93;;;;;;;;;;4944906;28;20157;-86
2022/11/28 05:05:42;;;;;;;9.07;4.60;;;;;;;;;;4950553;28;20133;-86
2022/11/28 05:08:10;;;;;;;10.23;4.70;;;;;;;;;;4963364;28;20054;-86
2022/11/28 05:10:38;;;;;;;9.63;5.50;;;;;;;;;;4963032;28;20050;-86
2022/11/28 05:16:00;;;;;;;12.25;5.35;;;;;;;;;;4961496;28;20062;-86
2022/11/28 05:18:34;;;;;;;10.48;4.65;;;;;;;;;;4961036;28;20055;-86
2022/11/28 05:21:04;;;;;;;14.65;5.43;;;;;;;;;;4962675;28;20078;-86
2022/11/28 05:24:01;;;;;;;14.98;5.40;;;;;;;;;;4949583;28;20079;-86
2022/11/28 05:26:31;;;;;;;10.10;5.20;;;;;;;;;;4947522;28;20075;-86
2022/11/28 05:29:04;;;;;;;12.90;5.40;;;;;;;;;;4962230;28;20059;-86
2022/11/28 05:31:38;;;;;;;14.23;5.30;;;;;;;;;;4948634;28;20134;-85
2022/11/28 05:34:30;;;;;;;10.73;4.80;;;;;;;;;;4960991;28;20709;-86
2022/11/28 05:36:58;;;;;;;13.98;6.28;;;;;;;;;;4989423;28;20050;-86
2022/11/28 05:39:26;;;;;;;13.20;5.55;;;;;;;;;;5005695;28;20100;-86
2022/11/28 05:41:58;;;;;;;15.32;5.95;;;;;;;;;;5010299;28;20573;-85
2022/11/28 05:47:18;;;;;;;13.52;6.20;;;;;;;;;;5007493;28;20775;-86
2022/11/28 05:50:34;;;;;;;13.60;6.35;;;;;;;;;;4993047;28;20599;-86
2022/11/28 05:53:06;;;;;;;10.15;5.15;;;;;;;;;;5010768;28;20046;-85
2022/11/28 05:55:40;;;;;;;12.65;5.50;;;;;;;;;;4989992;28;20046;-86
2022/11/28 05:58:08;;;;;;;12.02;6.03;;;;;;;;;;5004974;28;20050;-86
2022/11/28 06:00:36;;;;;;;13.30;5.65;;;;;;;;;;5004614;28;20077;-85
2022/11/28 06:03:04;;;;;;;13.63;5.75;;;;;;;;;;5008458;28;20050;-86
2022/11/28 06:05:32;;;;;;;12.80;5.72;;;;;;;;;;5007337;28;20137;-86
2022/11/28 06:08:14;;;;;;;16.92;6.07;;;;;;;;;;5002615;28;20050;-85
2022/11/28 06:10:42;;;;;;;11.32;4.93;;;;;;;;;;4993098;28;20042;-85
2022/11/28 06:13:14;;;;;;;13.82;4.93;;;;;;;;;;5008468;28;20108;-86
2022/11/28 06:18:34;;;;;;;8.80;4.95;;;;;;;;;;5006038;28;20050;-85
2022/11/28 06:21:03;;;;;;;7.38;3.55;;;;;;;;;;4990587;28;20060;-85
2022/11/28 06:23:36;;;;;;;10.32;5.20;;;;;;;;;;5007379;28;20069;-85
2022/11/28 06:26:13;;;;;;;11.45;5.25;;;;;;;;;;5009431;28;20049;-85
2022/11/28 06:28:40;;;;;;;11.27;5.30;;;;;;;;;;5008543;28;20464;-85
2022/11/28 06:31:58;;;;;;;14.05;5.35;;;;;;;;;;5007704;28;20049;-85
2022/11/28 06:34:26;;;;;;;12.23;5.85;;;;;;;;;;5018633;28;20050;-86
2022/11/28 06:36:58;;;;;;;12.18;5.65;;;;;;;;;;5008409;28;20141;-86
2022/11/28 06:39:50;;;;;;;6.80;3.95;;;;;;;;;;5004692;28;20633;-86
2022/11/28 06:42:18;;;;;;;10.73;4.93;;;;;;;;;;5008744;28;20057;-86
2022/11/28 06:44:46;;;;;;;12.32;5.95;;;;;;;;;;5006254;28;20050;-85
2022/11/28 06:47:14;;;;;;;12.40;5.05;;;;;;;;;;5008976;28;20057;-86
2022/11/28 06:49:42;;;;;;;11.50;5.47;;;;;;;;;;5006497;28;20045;-85
2022/11/28 06:52:20;;;;;;;11.55;5.57;;;;;;;;;;4988060;28;20744;-87
2022/11/28 06:54:48;;;;;;;14.48;5.85;;;;;;;;;;4988685;28;20131;-87
2022/11/28 06:57:16;;;;;;;12.10;5.53;;;;;;;;;;5004831;28;20076;-87
2022/11/28 06:59:44;;;;;;;18.58;6.65;;;;;;;;;;5007523;28;20574;-86
2022/11/28 07:02:12;;;;;;;15.10;7.05;;;;;;;;;;4990698;28;20046;-86
2022/11/28 07:04:44;;;;;;;12.32;6.25;;;;;;;;;;5006405;28;20049;-86
2022/11/28 07:07:12;;;;;;;12.75;4.78;;;;;;;;;;4989467;28;20547;-87
2022/11/28 07:09:49;;;;;;;11.43;5.03;;;;;;;;;;5006116;28;20045;-86
2022/11/28 07:12:22;;;;;;;13.95;6.47;;;;;;;;;;5008873;28;20042;-86
2022/11/28 07:15:14;;;;;;;11.95;5.35;;;;;;;;;;4989705;28;20495;-86
2022/11/28 07:17:46;;;;;;;12.98;6.38;;;;;;;;;;5007856;28;20076;-86
2022/11/28 07:20:14;;;;;;;10.52;5.78;;;;;;;;;;5007037;28;20056;-86
2022/11/28 07:22:42;;;;;;;16.80;7.60;;;;;;;;;;5007354;28;20104;-86
2022/11/28 07:25:10;;;;;;;18.67;5.95;;;;;;;;;;5009657;28;20062;-86
2022/11/28 07:27:38;;;;;;;13.02;6.28;;;;;;;;;;4986409;28;20046;-87
2022/11/28 07:30:07;;;;;;;15.75;7.68;;;;;;;;;;5004931;28;20060;-86
2022/11/28 07:32:40;;;;;;;15.35;7.28;;;;;;;;;;4998134;28;20045;-86
2022/11/28 07:35:33;;;;;;;13.73;6.53;;;;;;;;;;5004826;28;20042;-86
2022/11/28 07:38:00;;;;;;;17.95;6.82;;;;;;;;;;4990616;28;20046;-86
2022/11/28 07:40:28;;;;;;;18.23;6.60;;;;;;;;;;5007898;28;20566;-86
2022/11/28 07:43:00;;;;;;;15.90;6.40;;;;;;;;;;4999211;28;20050;-87
2022/11/28 07:45:32;;;;;;;15.23;6.47;;;;;;;;;;5006202;28;20050;-86
2022/11/28 07:48:24;;;;;;;13.68;6.65;;;;;;;;;;5000744;28;20050;-86
2022/11/28 07:50:52;;;;;;;15.95;6.68;;;;;;;;;;5004572;28;20081;-86
2022/11/28 07:53:20;;;;;;;18.45;7.07;;;;;;;;;;5005922;28;20499;-86
2022/11/28 07:55:48;;;;;;;18.60;7.78;;;;;;;;;;5001953;28;20061;-86
2022/11/28 07:58:41;;;;;;;14.93;6.53;;;;;;;;;;5005563;28;20504;-86
2022/11/28 08:01:12;;;;;;;17.58;7.85;;;;;;;;;;5007184;28;20054;-86
2022/11/28 08:03:40;;;;;;;15.73;7.53;;;;;;;;;;4985126;28;20041;-86
2022/11/28 08:06:08;;;;;;;14.57;5.95;;;;;;;;;;4996256;28;20558;-86
2022/11/28 08:08:36;;;;;;;16.55;6.95;;;;;;;;;;5007586;28;20046;-86
2022/11/28 08:11:05;;;;;;;14.85;6.32;;;;;;;;;;5006416;28;20050;-86
2022/11/28 08:13:35;;;;;;;16.17;6.82;;;;;;;;;;4974806;28;20095;-86
2022/11/28 08:16:20;;;;;;;17.70;7.43;;;;;;;;;;4989938;28;20046;-86
2022/11/28 08:18:49;;;;;;;13.80;6.68;;;;;;;;;;5000706;28;20120;-84
2022/11/28 08:21:26;;;;;;;17.02;7.85;;;;;;;;;;5011687;28;20108;-89
2022/11/28 08:23:57;;;;;;;18.13;7.65;;;;;;;;;;4996068;28;20607;-86
2022/11/28 08:26:27;;;;;;;17.02;7.32;;;;;;;;;;5008520;28;20050;-86
2022/11/28 08:28:59;;;;;;;16.40;7.25;;;;;;;;;;5011692;28;20050;-86
2022/11/28 08:31:29;;;;;;;15.30;7.30;;;;;;;;;;5010765;28;20435;-86
2022/11/28 08:34:26;;;;;;;13.65;7.15;;;;;;;;;;5012185;28;20042;-86
2022/11/28 08:36:54;;;;;;;15.98;7.38;;;;;;;;;;5006157;28;20321;-86
2022/11/28 08:39:22;;;;;;;18.05;6.95;;;;;;;;;;5010437;28;20056;-86
2022/11/28 08:41:55;;;;;;;16.92;7.30;;;;;;;;;;4994258;28;20276;-86
2022/11/28 08:44:25;;;;;;;21.88;7.93;;;;;;;;;;5009439;28;20053;-86
2022/11/28 08:46:54;;;;;;;18.50;8.50;;;;;;;;;;5009271;28;20120;-85
2022/11/28 08:49:46;;;;;;;14.57;6.03;;;;;;;;;;4994110;28;20527;-86
2022/11/28 08:52:14;;;;;;;15.55;8.13;;;;;;;;;;4991290;28;20050;-86
2022/11/28 08:54:42;;;;;;;18.65;7.75;;;;;;;;;;5009040;28;20046;-86
2022/11/28 08:57:16;;;;;;;16.98;8.00;;;;;;;;;;5010092;28;20049;-86
2022/11/28 08:59:44;;;;;;;15.60;7.45;;;;;;;;;;5007797;28;20054;-86
2022/11/28 09:02:12;;;;;;;17.15;8.07;;;;;;;;;;5007744;28;20961;-86
2022/11/28 09:05:04;;;;;;;19.77;8.25;;;;;;;;;;5009577;28;20149;-86
2022/11/28 09:07:32;;;;;;;23.08;8.48;;;;;;;;;;5009833;28;20843;-86
2022/11/28 09:10:04;;;;;;;14.02;7.20;;;;;;;;;;5009879;28;20050;-86
2022/11/28 09:12:32;;;;;;;21.63;8.13;;;;;;;;;;5007172;28;20108;-85
2022/11/28 09:15:00;;;;;;;15.30;7.15;;;;;;;;;;4988355;28;20081;-86
2022/11/28 09:17:28;;;;;;;18.15;8.68;;;;;;;;;;5007953;28;20054;-86
2022/11/28 09:20:00;;;;;;;14.77;7.75;;;;;;;;;;5004675;28;20046;-86
2022/11/28 09:22:28;;;;;;;16.52;7.28;;;;;;;;;;5005938;28;20073;-86
2022/11/28 09:25:44;;;;;;;16.67;8.00;;;;;;;;;;5016501;28;20061;-86
2022/11/28 09:28:12;;;;;;;18.65;7.35;;;;;;;;;;5009960;28;20061;-86
2022/11/28 09:30:44;;;;;;;20.75;8.02;;;;;;;;;;5007582;28;20064;-86
2022/11/28 09:33:16;;;;;;;15.38;7.13;;;;;;;;;;4990783;28;20085;-85
2022/11/28 09:35:44;;;;;;;19.80;7.47;;;;;;;;;;5005630;28;20067;-86
2022/11/28 09:38:12;;;;;;;12.95;5.95;;;;;;;;;;5007378;28;20060;-84
2022/11/28 09:41:24;;;;;;;16.23;7.65;;;;;;;;;;5008555;28;20176;-85
2022/11/28 09:43:54;;;;;;;15.05;6.72;;;;;;;;;;5023716;28;20062;-86
2022/11/28 09:46:31;;;;;;;15.75;6.63;;;;;;;;;;5003550;28;20125;-86
2022/11/28 09:49:03;;;;;;;16.33;7.30;;;;;;;;;;5007183;28;20133;-86
2022/11/28 09:52:04;;;;;;;13.43;6.72;;;;;;;;;;4988410;28;20535;-86
2022/11/28 09:54:51;;;;;;;13.45;6.40;;;;;;;;;;4967060;28;20043;-86
2022/11/28 09:57:31;;;;;;;13.35;5.72;;;;;;;;;;4968496;28;20116;-86
2022/11/28 09:59:58;;;;;;;15.35;7.13;;;;;;;;;;4967997;28;20131;-86
2022/11/28 10:02:33;;;;;;;14.05;6.43;;;;;;;;;;4963253;28;20055;-86
2022/11/28 10:05:06;;;;;;;15.52;7.22;;;;;;;;;;4967207;28;20179;-86
2022/11/28 10:07:46;;;;;;;16.50;6.88;;;;;;;;;;4969271;28;20055;-85
2022/11/28 10:10:51;;;;;;;17.05;7.35;;;;;;;;;;4967164;28;20063;-86
2022/11/28 10:13:47;;;;;;;15.50;6.82;;;;;;;;;;4969338;28;20049;-86
2022/11/28 10:17:09;;;;;;;11.40;5.47;;;;;;;;;;4966259;28;20058;-85
2022/11/28 10:19:43;;;;;;;16.83;7.25;;;;;;;;;;4965981;28;20082;-85
2022/11/28 10:22:49;;;;;;;15.45;6.85;;;;;;;;;;4966372;28;20106;-86
2022/11/28 10:25:21;;;;;;;18.90;6.50;;;;;;;;;;4965585;28;20051;-86
2022/11/28 10:27:50;;;;;;;10.45;3.65;;;;;;;;;;4949402;28;20050;-86
2022/11/28 10:30:23;;;;;;;14.32;6.82;;;;;;;;;;4963846;28;20083;-85
2022/11/28 10:33:02;;;;;;;19.73;6.68;;;;;;;;;;5004524;28;20057;-85
2022/11/28 10:35:58;;;;;;;17.00;6.63;;;;;;;;;;4990609;28;20046;-85
2022/11/28 10:38:35;;;;;;;11.60;5.20;;;;;;;;;;5005895;28;20061;-85
2022/11/28 10:41:15;;;;;;;11.90;5.88;;;;;;;;;;5008622;28;20050;-86
2022/11/28 10:44:00;;;;;;;15.70;6.57;;;;;;;;;;5008688;28;20054;-85
2022/11/28 10:46:51;;;;;;;17.30;8.30;;;;;;;;;;5007413;28;20120;-85
2022/11/28 10:49:47;;;;;;;14.50;7.45;;;;;;;;;;5006208;28;20098;-85
2022/11/28 10:52:31;;;;;;;13.65;6.53;;;;;;;;;;5005302;28;20053;-85
2022/11/28 10:55:21;;;;;;;17.77;7.28;;;;;;;;;;5007107;28;20054;-85
2022/11/28 10:58:00;;;;;;;16.48;7.40;;;;;;;;;;5006300;28;20137;-85
2022/11/28 11:00:28;;;;;;;15.52;7.43;;;;;;;;;;5006985;28;20046;-85
2022/11/28 11:02:59;;;;;;;16.52;7.40;;;;;;;;;;5008138;28;20046;-85
2022/11/28 11:05:30;;;;;;;12.48;6.45;;;;;;;;;;5008155;28;20064;-85
2022/11/28 11:08:10;;;;;;;17.67;7.20;;;;;;;;;;5007288;28;20073;-85
2022/11/28 11:10:40;;;;;;;14.73;6.55;;;;;;;;;;5024177;28;20062;-85
2022/11/28 11:13:20;;;;;;;17.90;7.13;;;;;;;;;;5009263;28;20586;-85
2022/11/28 11:15:58;;;;;;;13.07;5.55;;;;;;;;;;5008152;28;20046;-85
2022/11/28 11:18:36;;;;;;;17.23;7.03;;;;;;;;;;5004034;28;20515;-85
2022/11/28 11:21:24;;;;;;;17.98;6.63;;;;;;;;;;5003626;28;20136;-85
2022/11/28 11:24:15;;;;;;;16.83;7.20;;;;;;;;;;4996913;28;20116;-86
2022/11/28 11:26:49;;;;;;;14.75;6.43;;;;;;;;;;4989810;28;20050;-85
2022/11/28 11:29:26;;;;;;;21.88;7.38;;;;;;;;;;4986841;28;20054;-85
2022/11/28 11:31:54;;;;;;;18.83;7.40;;;;;;;;;;5006039;28;20148;-85
2022/11/28 11:34:36;;;;;;;13.45;6.80;;;;;;;;;;4986195;28;20073;-85
2022/11/28 11:37:29;;;;;;;14.20;6.68;;;;;;;;;;5008951;28;20046;-85
2022/11/28 11:39:59;;;;;;;16.83;7.00;;;;;;;;;;5006695;28;20084;-85
2022/11/28 11:42:58;;;;;;;15.95;6.95;;;;;;;;;;4988390;28;20045;-85
2022/11/28 11:45:33;;;;;;;14.98;6.90;;;;;;;;;;5004517;28;20049;-85
2022/11/28 11:48:03;;;;;;;13.27;6.82;;;;;;;;;;4971231;28;20519;-85
2022/11/28 11:50:31;;;;;;;14.82;7.32;;;;;;;;;;5016743;28;20437;-86
2022/11/28 11:53:26;;;;;;;13.95;6.97;;;;;;;;;;5010205;28;20050;-85
2022/11/28 11:55:57;;;;;;;14.65;7.68;;;;;;;;;;5009499;28;20128;-85
2022/11/28 11:58:42;;;;;;;13.88;7.50;;;;;;;;;;5010004;28;20104;-85
2022/11/28 12:01:17;;;;;;;16.77;6.63;;;;;;;;;;5011881;28;21094;-85
2022/11/28 12:03:51;;;;;;;15.27;6.95;;;;;;;;;;5009188;28;20052;-85
2022/11/28 12:06:24;;;;;;;19.77;6.93;;;;;;;;;;5010404;28;20092;-85
2022/11/28 12:08:59;;;;;;;13.98;6.32;;;;;;;;;;5009702;28;20057;-85
2022/11/28 12:12:03;;;;;;;13.45;6.65;;;;;;;;;;5025904;28;20038;-85
2022/11/28 12:14:34;;;;;;;14.43;6.50;;;;;;;;;;5011428;28;20886;-85
2022/11/28 12:17:15;;;;;;;16.30;7.32;;;;;;;;;;5010197;28;20046;-85
2022/11/28 12:20:19;;;;;;;13.77;6.28;;;;;;;;;;5011356;28;20081;-85
2022/11/28 12:23:14;;;;;;;18.60;7.28;;;;;;;;;;5011602;28;20050;-85
2022/11/28 12:25:54;;;;;;;13.07;6.10;;;;;;;;;;5013350;28;20045;-86
2022/11/28 12:28:38;;;;;;;19.38;7.18;;;;;;;;;;5009124;28;20148;-85
2022/11/28 12:31:33;;;;;;;16.40;7.13;;;;;;;;;;5009381;28;20463;-85
2022/11/28 12:34:28;;;;;;;15.23;6.35;;;;;;;;;;5009302;28;20065;-85
2022/11/28 12:38:04;;;;;;;5.05;2.85;;;;;;;;;;4995141;28;20498;-85
2022/11/28 12:41:17;;;;;;;15.65;5.90;;;;;;;;;;5009680;28;20056;-85
2022/11/28 12:44:45;;;;;;;13.30;6.60;;;;;;;;;;5009628;28;20030;-85
2022/11/28 12:47:45;;;;;;;12.05;6.28;;;;;;;;;;5008633;28;20486;-85
2022/11/28 12:50:43;;;;;;;14.02;6.28;;;;;;;;;;4992118;28;20053;-86
2022/11/28 12:53:29;;;;;;;14.25;5.45;;;;;;;;;;4991509;28;20150;-85
2022/11/28 12:56:27;;;;;;;16.67;6.78;;;;;;;;;;5009698;28;20065;-85
2022/11/28 12:59:19;;;;;;;14.95;6.47;;;;;;;;;;5011510;28;20054;-85
2022/11/28 13:01:55;;;;;;;11.18;6.05;;;;;;;;;;5003013;28;20057;-85
2022/11/28 13:04:40;;;;;;;18.35;7.80;;;;;;;;;;5005218;28;20480;-85
2022/11/28 13:07:24;;;;;;;15.30;6.75;;;;;;;;;;5012606;28;20092;-85
2022/11/28 13:10:07;;;;;;;17.60;6.53;;;;;;;;;;4989633;28;20054;-85
2022/11/28 13:12:54;;;;;;;13.10;6.45;;;;;;;;;;5002659;28;20057;-86
2022/11/28 13:16:16;;;;;;;13.43;5.53;;;;;;;;;;5009310;28;20398;-85
2022/11/28 13:19:03;;;;;;;13.75;6.47;;;;;;;;;;4949497;28;20078;-84
2022/11/28 13:21:45;;;;;;;12.85;6.40;;;;;;;;;;4961851;28;20066;-84
2022/11/28 13:24:50;;;;;;;16.52;6.65;;;;;;;;;;4964723;28;20518;-84
2022/11/28 13:27:52;;;;;;;13.77;6.45;;;;;;;;;;4966220;28;20051;-85
2022/11/28 13:30:25;;;;;;;14.63;6.47;;;;;;;;;;4966868;28;20098;-84
2022/11/28 13:33:07;;;;;;;14.00;6.80;;;;;;;;;;4950729;28;20085;-85
2022/11/28 13:35:37;;;;;;;18.00;6.75;;;;;;;;;;4965678;28;20051;-85
2022/11/28 13:38:25;;;;;;;14.02;6.72;;;;;;;;;;4965546;28;20061;-85
2022/11/28 13:41:36;;;;;;;13.25;6.68;;;;;;;;;;4966228;28;20077;-85
2022/11/28 13:44:51;;;;;;;12.32;5.10;;;;;;;;;;4966142;28;20050;-84
2022/11/28 13:47:20;;;;;;;18.80;6.28;;;;;;;;;;4965134;28;20054;-85
2022/11/28 13:50:21;;;;;;;13.45;6.70;;;;;;;;;;4999151;28;20041;-85
2022/11/28 13:53:00;;;;;;;17.05;6.35;;;;;;;;;;5022863;28;20050;-85
2022/11/28 13:55:38;;;;;;;8.52;4.13;;;;;;;;;;5007696;28;20046;-85
2022/11/28 13:58:30;;;;;;;10.80;5.63;;;;;;;;;;5009349;28;20064;-85
2022/11/28 14:00:59;;;;;;;15.40;7.28;;;;;;;;;;4990024;28;20364;-85
2022/11/28 14:03:31;;;;;;;12.07;6.13;;;;;;;;;;5008204;28;20046;-85
2022/11/28 14:06:04;;;;;;;11.93;5.72;;;;;;;;;;5009498;28;20080;-85
2022/11/28 14:08:38;;;;;;;20.83;6.25;;;;;;;;;;5007748;28;20053;-85
2022/11/28 14:11:24;;;;;;;11.80;5.10;;;;;;;;;;4996310;28;20046;-85
2022/11/28 14:14:18;;;;;;;14.70;7.03;;;;;;;;;;5006019;28;20128;-85
2022/11/28 14:17:16;;;;;;;14.32;6.57;;;;;;;;;;5004011;28;20077;-85
2022/11/28 14:20:16;;;;;;;8.32;4.53;;;;;;;;;;5008292;28;20042;-85
2022/11/28 14:22:49;;;;;;;17.77;6.00;;;;;;;;;;5006747;28;20133;-85
2022/11/28 14:25:27;;;;;;;16.55;6.75;;;;;;;;;;5023102;28;20042;-85
2022/11/28 14:28:00;;;;;;;17.83;6.57;;;;;;;;;;5008526;28;20054;-85
2022/11/28 14:30:40;;;;;;;19.65;7.53;;;;;;;;;;4985215;28;20081;-85
2022/11/28 14:33:30;;;;;;;12.15;6.13;;;;;;;;;;5006031;28;20056;-85
2022/11/28 14:36:05;;;;;;;19.00;7.28;;;;;;;;;;4972515;28;20133;-87
2022/11/28 14:38:34;;;;;;;16.02;7.15;;;;;;;;;;5006526;28;20133;-86
2022/11/28 14:41:05;;;;;;;14.23;5.75;;;;;;;;;;5006165;28;20081;-85
2022/11/28 14:44:49;;;;;;;15.30;6.57;;;;;;;;;;5009821;28;20137;-86
2022/11/28 14:47:27;;;;;;;17.40;7.25;;;;;;;;;;5010460;28;20534;-86
2022/11/28 14:50:03;;;;;;;18.70;7.63;;;;;;;;;;5009857;28;20056;-86
2022/11/28 14:52:40;;;;;;;15.75;7.75;;;;;;;;;;5006843;28;20046;-87
2022/11/28 14:55:18;;;;;;;20.67;7.00;;;;;;;;;;5010095;28;20571;-85
2022/11/28 14:58:02;;;;;;;15.43;6.30;;;;;;;;;;5013656;28;20065;-86
2022/11/28 15:00:52;;;;;;;16.70;7.32;;;;;;;;;;4991746;28;20050;-87
2022/11/28 15:03:23;;;;;;;16.73;7.40;;;;;;;;;;5007379;28;20443;-87
2022/11/28 15:05:58;;;;;;;14.98;6.22;;;;;;;;;;5005116;28;20057;-87
2022/11/28 15:08:57;;;;;;;18.63;7.55;;;;;;;;;;4985548;28;20416;-86
2022/11/28 15:11:38;;;;;;;22.60;7.97;;;;;;;;;;4992657;28;20491;-87
2022/11/28 15:14:22;;;;;;;15.00;7.10;;;;;;;;;;4991912;28;20518;-87
2022/11/28 15:16:53;;;;;;;19.35;8.30;;;;;;;;;;4992971;28;20492;-86
2022/11/28 15:19:33;;;;;;;13.38;6.70;;;;;;;;;;5007280;28;20069;-87
2022/11/28 15:22:00;;;;;;;15.65;7.28;;;;;;;;;;5007285;28;20103;-86
2022/11/28 15:24:31;;;;;;;18.60;8.00;;;;;;;;;;5005447;28;20058;-87
2022/11/28 15:27:06;;;;;;;17.60;7.38;;;;;;;;;;5001445;28;20439;-85
2022/11/28 15:30:00;;;;;;;18.95;7.68;;;;;;;;;;5010239;28;20053;-88
2022/11/28 15:32:29;;;;;;;16.02;7.55;;;;;;;;;;4990797;28;20042;-89
2022/11/28 15:35:03;;;;;;;13.50;6.75;;;;;;;;;;5011928;28;20635;-88
2022/11/28 15:37:48;;;;;;;18.63;8.18;;;;;;;;;;4984804;28;20508;-88
2022/11/28 15:40:49;;;;;;;18.15;8.10;;;;;;;;;;5007024;28;20068;-88
2022/11/28 15:43:16;;;;;;;7.97;2.97;;;;;;;;;;4989234;28;20077;-88
2022/11/28 15:45:49;;;;;;;20.38;7.38;;;;;;;;;;5000967;28;20100;-87
2022/11/28 15:48:34;;;;;;;18.02;7.53;;;;;;;;;;5003312;28;20104;-87
2022/11/28 15:51:41;;;;;;;18.02;8.40;;;;;;;;;;4987297;28;20042;-87
2022/11/28 15:54:36;;;;;;;19.50;7.85;;;;;;;;;;5007167;28;20045;-87